sensor_id;sensor_type;location;lat;lon;timestamp;pressure;altitude;pressure_sealevel;temperature;humidity
42761;BME280;31672;47.638;19.026;2023-01-31T00:03:31;99613.69;;;1.55;92.52
42761;BME280;31672;47.638;19.026;2023-01-31T00:08:34;99639.16;;;1.53;93.63
42761;BME280;31672;47.638;19.026;2023-01-31T00:13:38;99631.34;;;1.42;95.68
42761;BME280;31672;47.638;19.026;2023-01-31T00:18:42;99626.63;;;1.24;97.57
42761;BME280;31672;47.638;19.026;2023-01-31T00:23:47;99623.91;;;1.15;99.58
42761;BME280;31672;47.638;19.026;2023-01-31T00:28:52;99612.84;;;1.11;100.00
42761;BME280;31672;47.638;19.026;2023-01-31T00:33:56;99613.31;;;1.16;100.00
42761;BME280;31672;47.638;19.026;2023-01-31T00:39:02;99621.88;;;1.18;100.00
42761;BME280;31672;47.638;19.026;2023-01-31T00:44:06;99606.16;;;1.18;100.00
42761;BME280;31672;47.638;19.026;2023-01-31T00:49:09;99619.13;;;1.20;100.00
42761;BME280;31672;47.638;19.026;2023-01-31T00:54:12;99613.31;;;1.27;100.00
42761;BME280;31672;47.638;19.026;2023-01-31T00:59:15;99617.09;;;1.34;99.43
42761;BME280;31672;47.638;19.026;2023-01-31T01:04:18;99632.31;;;1.41;98.13
42761;BME280;31672;47.638;19.026;2023-01-31T01:09:21;99639.78;;;1.45;96.60
42761;BME280;31672;47.638;19.026;2023-01-31T01:14:24;99638.69;;;1.48;95.17
42761;BME280;31672;47.638;19.026;2023-01-31T01:19:27;99643.72;;;1.51;94.68
42761;BME280;31672;47.638;19.026;2023-01-31T01:24:30;99643.81;;;1.49;93.81
42761;BME280;31672;47.638;19.026;2023-01-31T01:29:33;99650.34;;;1.55;92.77
42761;BME280;31672;47.638;19.026;2023-01-31T01:34:36;99657.00;;;1.59;92.03
42761;BME280;31672;47.638;19.026;2023-01-31T01:39:40;99665.56;;;1.61;91.50
42761;BME280;31672;47.638;19.026;2023-01-31T01:50:23;99678.19;;;1.56;90.59
42761;BME280;31672;47.638;19.026;2023-01-31T01:55:40;99686.03;;;1.56;90.61
42761;BME280;31672;47.638;19.026;2023-01-31T02:00:44;99708.91;;;1.54;90.22
42761;BME280;31672;47.638;19.026;2023-01-31T02:05:53;99718.69;;;1.52;90.14
42761;BME280;31672;47.638;19.026;2023-01-31T02:11:17;99727.72;;;1.48;90.12
42761;BME280;31672;47.638;19.026;2023-01-31T02:16:24;99726.78;;;1.49;89.91
42761;BME280;31672;47.638;19.026;2023-01-31T02:22:13;99727.59;;;1.49;89.95
42761;BME280;31672;47.638;19.026;2023-01-31T02:44:06;99732.47;;;1.54;88.96
42761;BME280;31672;47.638;19.026;2023-01-31T02:49:47;99745.44;;;1.55;88.64
42761;BME280;31672;47.638;19.026;2023-01-31T03:00:37;99756.53;;;1.59;87.87
42761;BME280;31672;47.638;19.026;2023-01-31T03:05:41;99754.59;;;1.61;87.15
42761;BME280;31672;47.638;19.026;2023-01-31T03:11:04;99769.84;;;1.67;86.67
42761;BME280;31672;47.638;19.026;2023-01-31T03:21:46;99790.19;;;1.86;84.73
42761;BME280;31672;47.638;19.026;2023-01-31T03:26:56;99784.09;;;1.85;84.52
42761;BME280;31672;47.638;19.026;2023-01-31T03:32:49;99809.81;;;1.92;84.10
42761;BME280;31672;47.638;19.026;2023-01-31T03:37:49;99806.81;;;1.96;83.60
42761;BME280;31672;47.638;19.026;2023-01-31T03:42:56;99818.75;;;2.00;83.15
42761;BME280;31672;47.638;19.026;2023-01-31T03:48:01;99835.66;;;1.96;83.09
42761;BME280;31672;47.638;19.026;2023-01-31T03:53:45;99855.56;;;1.87;83.70
42761;BME280;31672;47.638;19.026;2023-01-31T03:58:53;99861.28;;;1.81;83.85
42761;BME280;31672;47.638;19.026;2023-01-31T04:09:19;99881.75;;;1.76;84.60
42761;BME280;31672;47.638;19.026;2023-01-31T04:14:24;99883.56;;;1.76;84.32
42761;BME280;31672;47.638;19.026;2023-01-31T04:19:28;99897.13;;;1.70;84.82
42761;BME280;31672;47.638;19.026;2023-01-31T04:24:32;99905.00;;;1.70;85.14
42761;BME280;31672;47.638;19.026;2023-01-31T04:29:35;99909.88;;;1.63;85.27
42761;BME280;31672;47.638;19.026;2023-01-31T04:34:38;99932.22;;;1.67;86.71
42761;BME280;31672;47.638;19.026;2023-01-31T04:39:42;99942.50;;;1.70;86.58
42761;BME280;31672;47.638;19.026;2023-01-31T04:44:45;99941.78;;;1.68;87.21
42761;BME280;31672;47.638;19.026;2023-01-31T04:49:48;99952.59;;;1.64;87.91
42761;BME280;31672;47.638;19.026;2023-01-31T04:54:51;99960.47;;;1.64;88.14
42761;BME280;31672;47.638;19.026;2023-01-31T04:59:54;99968.31;;;1.64;88.46
42761;BME280;31672;47.638;19.026;2023-01-31T05:04:57;99969.53;;;1.71;88.53
42761;BME280;31672;47.638;19.026;2023-01-31T05:10:00;99974.16;;;1.78;88.46
42761;BME280;31672;47.638;19.026;2023-01-31T05:15:04;99963.69;;;1.78;89.32
42761;BME280;31672;47.638;19.026;2023-01-31T05:20:10;99976.41;;;1.72;91.31
42761;BME280;31672;47.638;19.026;2023-01-31T05:25:14;99983.91;;;1.65;92.22
42761;BME280;31672;47.638;19.026;2023-01-31T05:30:17;99979.63;;;1.64;93.31
42761;BME280;31672;47.638;19.026;2023-01-31T05:35:20;99978.69;;;1.65;93.20
42761;BME280;31672;47.638;19.026;2023-01-31T05:40:24;99996.41;;;1.61;92.95
42761;BME280;31672;47.638;19.026;2023-01-31T05:45:28;99995.34;;;1.64;92.07
42761;BME280;31672;47.638;19.026;2023-01-31T05:50:31;100005.34;;;1.59;91.36
42761;BME280;31672;47.638;19.026;2023-01-31T05:55:34;99993.19;;;1.58;90.71
42761;BME280;31672;47.638;19.026;2023-01-31T06:00:37;99996.03;;;1.55;90.23
42761;BME280;31672;47.638;19.026;2023-01-31T06:05:43;99998.44;;;1.58;89.45
42761;BME280;31672;47.638;19.026;2023-01-31T06:10:45;100001.06;;;1.58;88.64
42761;BME280;31672;47.638;19.026;2023-01-31T06:15:48;99994.97;;;1.57;87.94
42761;BME280;31672;47.638;19.026;2023-01-31T06:20:52;100000.56;;;1.53;87.47
42761;BME280;31672;47.638;19.026;2023-01-31T06:25:56;99998.16;;;1.50;87.34
42761;BME280;31672;47.638;19.026;2023-01-31T06:31:09;99995.06;;;1.45;86.75
42761;BME280;31672;47.638;19.026;2023-01-31T06:36:12;99988.13;;;1.44;86.79
42761;BME280;31672;47.638;19.026;2023-01-31T06:41:20;99989.84;;;1.45;86.17
42761;BME280;31672;47.638;19.026;2023-01-31T06:46:23;99988.13;;;1.44;86.05
42761;BME280;31672;47.638;19.026;2023-01-31T06:51:26;100000.88;;;1.48;85.63
42761;BME280;31672;47.638;19.026;2023-01-31T06:56:29;99987.59;;;1.51;85.04
42761;BME280;31672;47.638;19.026;2023-01-31T07:01:32;99989.84;;;1.56;84.03
42761;BME280;31672;47.638;19.026;2023-01-31T07:06:35;99989.50;;;1.60;83.69
42761;BME280;31672;47.638;19.026;2023-01-31T07:11:39;99998.47;;;1.69;83.08
42761;BME280;31672;47.638;19.026;2023-01-31T07:16:42;99983.13;;;2.21;80.89
42761;BME280;31672;47.638;19.026;2023-01-31T07:21:45;100010.06;;;3.00;77.98
42761;BME280;31672;47.638;19.026;2023-01-31T07:26:53;100006.72;;;3.62;75.54
42761;BME280;31672;47.638;19.026;2023-01-31T07:31:56;100007.19;;;3.97;71.68
42761;BME280;31672;47.638;19.026;2023-01-31T07:36:59;100029.44;;;4.14;70.19
42761;BME280;31672;47.638;19.026;2023-01-31T07:42:02;100031.78;;;4.17;69.17
42761;BME280;31672;47.638;19.026;2023-01-31T07:47:05;100052.63;;;4.30;69.91
42761;BME280;31672;47.638;19.026;2023-01-31T07:52:08;100056.91;;;4.31;67.56
42761;BME280;31672;47.638;19.026;2023-01-31T07:57:11;100075.97;;;4.44;66.29
42761;BME280;31672;47.638;19.026;2023-01-31T08:02:16;100096.50;;;4.50;66.47
42761;BME280;31672;47.638;19.026;2023-01-31T08:07:38;100115.31;;;4.25;67.21
42761;BME280;31672;47.638;19.026;2023-01-31T08:12:41;100120.53;;;4.15;68.12
42761;BME280;31672;47.638;19.026;2023-01-31T08:17:44;100132.44;;;4.40;67.60
42761;BME280;31672;47.638;19.026;2023-01-31T08:22:48;100137.78;;;4.80;67.64
42761;BME280;31672;47.638;19.026;2023-01-31T08:27:51;100151.63;;;5.23;65.81
42761;BME280;31672;47.638;19.026;2023-01-31T08:32:55;100155.56;;;5.57;64.76
42761;BME280;31672;47.638;19.026;2023-01-31T08:37:58;100174.47;;;5.72;63.82
42761;BME280;31672;47.638;19.026;2023-01-31T08:43:17;100186.59;;;5.94;63.30
42761;BME280;31672;47.638;19.026;2023-01-31T08:48:20;100195.31;;;6.04;62.31
42761;BME280;31672;47.638;19.026;2023-01-31T08:53:23;100207.53;;;6.05;62.14
42761;BME280;31672;47.638;19.026;2023-01-31T08:58:31;100205.19;;;6.02;62.44
42761;BME280;31672;47.638;19.026;2023-01-31T09:03:35;100207.00;;;6.21;61.63
42761;BME280;31672;47.638;19.026;2023-01-31T09:08:38;100223.66;;;6.22;59.94
42761;BME280;31672;47.638;19.026;2023-01-31T09:13:42;100223.50;;;6.23;60.96
42761;BME280;31672;47.638;19.026;2023-01-31T09:18:45;100240.06;;;6.06;61.15
42761;BME280;31672;47.638;19.026;2023-01-31T09:23:55;100236.28;;;6.28;61.93
42761;BME280;31672;47.638;19.026;2023-01-31T09:28:59;100243.38;;;6.47;60.05
42761;BME280;31672;47.638;19.026;2023-01-31T09:34:03;100238.56;;;6.89;60.86
42761;BME280;31672;47.638;19.026;2023-01-31T09:39:06;100234.28;;;7.25;58.01
42761;BME280;31672;47.638;19.026;2023-01-31T09:44:30;100244.72;;;6.70;57.75
42761;BME280;31672;47.638;19.026;2023-01-31T09:55:21;100256.72;;;5.16;63.07
42761;BME280;31672;47.638;19.026;2023-01-31T10:00:50;100264.91;;;4.71;65.77
42761;BME280;31672;47.638;19.026;2023-01-31T10:06:21;100262.31;;;5.02;66.64
42761;BME280;31672;47.638;19.026;2023-01-31T10:12:16;100261.16;;;4.95;65.57
42761;BME280;31672;47.638;19.026;2023-01-31T10:22:56;100263.88;;;4.63;66.85
42761;BME280;31672;47.638;19.026;2023-01-31T10:34:08;100257.06;;;4.81;66.20
42761;BME280;31672;47.638;19.026;2023-01-31T10:39:22;100252.31;;;4.75;66.63
42761;BME280;31672;47.638;19.026;2023-01-31T10:45:09;100265.34;;;4.76;65.08
42761;BME280;31672;47.638;19.026;2023-01-31T11:00:57;100240.19;;;5.14;62.50
42761;BME280;31672;47.638;19.026;2023-01-31T11:06:00;100240.25;;;5.24;61.75
42761;BME280;31672;47.638;19.026;2023-01-31T11:11:11;100226.53;;;5.30;61.47
42761;BME280;31672;47.638;19.026;2023-01-31T11:16:16;100222.38;;;5.37;61.62
42761;BME280;31672;47.638;19.026;2023-01-31T11:21:24;100216.91;;;5.69;59.84
42761;BME280;31672;47.638;19.026;2023-01-31T11:26:35;100204.47;;;5.90;59.48
42761;BME280;31672;47.638;19.026;2023-01-31T11:31:40;100208.41;;;6.06;57.76
42761;BME280;31672;47.638;19.026;2023-01-31T11:36:45;100207.28;;;6.18;58.39
42761;BME280;31672;47.638;19.026;2023-01-31T11:41:49;100204.50;;;6.20;56.59
42761;BME280;31672;47.638;19.026;2023-01-31T11:47:03;100203.25;;;6.04;56.38
42761;BME280;31672;47.638;19.026;2023-01-31T11:52:14;100197.91;;;5.66;54.00
42761;BME280;31672;47.638;19.026;2023-01-31T11:57:26;100200.63;;;5.35;54.65
42761;BME280;31672;47.638;19.026;2023-01-31T12:03:04;100198.56;;;5.08;54.36
42761;BME280;31672;47.638;19.026;2023-01-31T12:08:42;100185.03;;;4.92;55.28
42761;BME280;31672;47.638;19.026;2023-01-31T12:13:59;100181.16;;;4.86;56.36
42761;BME280;31672;47.638;19.026;2023-01-31T12:47:36;100197.66;;;4.67;58.36
42761;BME280;31672;47.638;19.026;2023-01-31T13:09:17;100213.81;;;4.32;58.84
42761;BME280;31672;47.638;19.026;2023-01-31T13:14:26;100208.78;;;4.29;59.41
42761;BME280;31672;47.638;19.026;2023-01-31T13:24:40;100218.56;;;4.38;58.55
42761;BME280;31672;47.638;19.026;2023-01-31T13:35:29;100232.91;;;4.55;58.97
42761;BME280;31672;47.638;19.026;2023-01-31T13:41:02;100228.84;;;4.62;58.03
42761;BME280;31672;47.638;19.026;2023-01-31T13:46:07;100224.25;;;4.64;58.19
42761;BME280;31672;47.638;19.026;2023-01-31T13:51:26;100216.50;;;4.63;58.10
42761;BME280;31672;47.638;19.026;2023-01-31T13:56:34;100233.19;;;4.52;58.50
42761;BME280;31672;47.638;19.026;2023-01-31T14:01:47;100229.88;;;4.50;59.10
42761;BME280;31672;47.638;19.026;2023-01-31T14:22:34;100263.06;;;3.98;63.64
42761;BME280;31672;47.638;19.026;2023-01-31T14:28:00;100250.78;;;3.87;64.53
42761;BME280;31672;47.638;19.026;2023-01-31T14:55:27;100259.91;;;3.72;68.22
42761;BME280;31672;47.638;19.026;2023-01-31T15:00:36;100272.69;;;3.65;68.98
42761;BME280;31672;47.638;19.026;2023-01-31T15:05:52;100281.19;;;3.58;69.79
42761;BME280;31672;47.638;19.026;2023-01-31T15:11:00;100263.16;;;3.53;70.13
42761;BME280;31672;47.638;19.026;2023-01-31T15:16:28;100270.69;;;3.46;70.57
42761;BME280;31672;47.638;19.026;2023-01-31T15:21:49;100272.94;;;3.40;71.33
42761;BME280;31672;47.638;19.026;2023-01-31T15:26:54;100272.38;;;3.36;71.89
42761;BME280;31672;47.638;19.026;2023-01-31T15:32:07;100274.53;;;3.31;72.92
42761;BME280;31672;47.638;19.026;2023-01-31T15:37:28;100268.91;;;3.25;73.61
42761;BME280;31672;47.638;19.026;2023-01-31T15:42:33;100261.38;;;3.09;74.95
42761;BME280;31672;47.638;19.026;2023-01-31T15:47:36;100267.56;;;2.97;76.11
42761;BME280;31672;47.638;19.026;2023-01-31T15:52:39;100254.69;;;2.82;76.92
42761;BME280;31672;47.638;19.026;2023-01-31T15:57:53;100245.56;;;2.75;77.89
42761;BME280;31672;47.638;19.026;2023-01-31T16:02:59;100255.69;;;2.68;78.39
42761;BME280;31672;47.638;19.026;2023-01-31T16:08:18;100265.81;;;2.62;78.34
42761;BME280;31672;47.638;19.026;2023-01-31T16:13:22;100266.41;;;2.54;79.75
42761;BME280;31672;47.638;19.026;2023-01-31T16:18:26;100268.66;;;2.48;80.05
42761;BME280;31672;47.638;19.026;2023-01-31T16:23:33;100263.63;;;2.45;80.34
42761;BME280;31672;47.638;19.026;2023-01-31T16:28:45;100272.31;;;2.45;81.54
42761;BME280;31672;47.638;19.026;2023-01-31T16:33:55;100281.03;;;2.46;82.12
42761;BME280;31672;47.638;19.026;2023-01-31T16:39:05;100272.13;;;2.48;82.04
42761;BME280;31672;47.638;19.026;2023-01-31T16:44:17;100286.06;;;2.49;82.25
42761;BME280;31672;47.638;19.026;2023-01-31T16:49:34;100272.00;;;2.50;82.41
42761;BME280;31672;47.638;19.026;2023-01-31T16:55:00;100273.44;;;2.54;82.33
42761;BME280;31672;47.638;19.026;2023-01-31T17:00:31;100266.78;;;2.61;81.21
42761;BME280;31672;47.638;19.026;2023-01-31T17:05:40;100269.91;;;2.66;80.98
42761;BME280;31672;47.638;19.026;2023-01-31T17:10:45;100269.78;;;2.67;80.40
42761;BME280;31672;47.638;19.026;2023-01-31T17:15:49;100267.03;;;2.69;80.03
42761;BME280;31672;47.638;19.026;2023-01-31T17:20:53;100267.97;;;2.68;79.68
42761;BME280;31672;47.638;19.026;2023-01-31T17:25:56;100271.44;;;2.68;79.52
42761;BME280;31672;47.638;19.026;2023-01-31T17:30:59;100274.81;;;2.71;78.75
42761;BME280;31672;47.638;19.026;2023-01-31T17:36:02;100266.81;;;2.72;78.40
42761;BME280;31672;47.638;19.026;2023-01-31T17:41:11;100269.31;;;2.74;77.77
42761;BME280;31672;47.638;19.026;2023-01-31T17:46:17;100265.72;;;2.75;77.09
42761;BME280;31672;47.638;19.026;2023-01-31T17:51:20;100260.38;;;2.76;76.50
42761;BME280;31672;47.638;19.026;2023-01-31T17:56:23;100257.66;;;2.78;75.84
42761;BME280;31672;47.638;19.026;2023-01-31T18:01:26;100257.31;;;2.82;74.82
42761;BME280;31672;47.638;19.026;2023-01-31T18:06:29;100244.28;;;2.81;74.61
42761;BME280;31672;47.638;19.026;2023-01-31T18:11:32;100245.34;;;2.78;74.19
42761;BME280;31672;47.638;19.026;2023-01-31T18:16:36;100251.66;;;2.76;74.41
42761;BME280;31672;47.638;19.026;2023-01-31T18:21:39;100253.34;;;2.77;73.80
42761;BME280;31672;47.638;19.026;2023-01-31T18:26:51;100249.66;;;2.79;73.29
42761;BME280;31672;47.638;19.026;2023-01-31T18:31:55;100244.28;;;2.81;73.08
42761;BME280;31672;47.638;19.026;2023-01-31T18:37:02;100247.63;;;2.83;72.96
42761;BME280;31672;47.638;19.026;2023-01-31T18:42:08;100240.97;;;2.90;72.77
42761;BME280;31672;47.638;19.026;2023-01-31T18:47:12;100241.19;;;2.87;72.77
42761;BME280;31672;47.638;19.026;2023-01-31T18:52:15;100242.88;;;2.88;73.07
42761;BME280;31672;47.638;19.026;2023-01-31T18:57:19;100238.56;;;2.87;72.97
42761;BME280;31672;47.638;19.026;2023-01-31T19:02:22;100247.03;;;2.90;73.18
42761;BME280;31672;47.638;19.026;2023-01-31T19:07:26;100246.09;;;2.91;73.30
42761;BME280;31672;47.638;19.026;2023-01-31T19:12:29;100258.50;;;2.89;74.16
42761;BME280;31672;47.638;19.026;2023-01-31T19:17:32;100261.59;;;2.83;75.31
42761;BME280;31672;47.638;19.026;2023-01-31T19:22:35;100250.72;;;2.77;76.24
42761;BME280;31672;47.638;19.026;2023-01-31T19:27:39;100256.31;;;2.72;77.91
42761;BME280;31672;47.638;19.026;2023-01-31T19:32:42;100253.53;;;2.62;78.17
42761;BME280;31672;47.638;19.026;2023-01-31T19:37:45;100264.50;;;2.56;79.49
42761;BME280;31672;47.638;19.026;2023-01-31T19:42:48;100248.97;;;2.42;81.20
42761;BME280;31672;47.638;19.026;2023-01-31T19:47:51;100244.84;;;2.27;82.67
42761;BME280;31672;47.638;19.026;2023-01-31T19:52:54;100240.88;;;2.10;84.36
42761;BME280;31672;47.638;19.026;2023-01-31T19:57:57;100239.75;;;2.01;85.99
42761;BME280;31672;47.638;19.026;2023-01-31T20:03:02;100244.34;;;1.98;86.39
42761;BME280;31672;47.638;19.026;2023-01-31T20:08:06;100243.13;;;1.91;87.63
42761;BME280;31672;47.638;19.026;2023-01-31T20:13:09;100237.50;;;1.84;88.67
42761;BME280;31672;47.638;19.026;2023-01-31T20:18:12;100239.75;;;1.77;89.52
42761;BME280;31672;47.638;19.026;2023-01-31T20:23:15;100234.22;;;1.69;90.14
42761;BME280;31672;47.638;19.026;2023-01-31T20:28:19;100243.47;;;1.62;91.53
42761;BME280;31672;47.638;19.026;2023-01-31T20:33:22;100242.34;;;1.53;92.60
42761;BME280;31672;47.638;19.026;2023-01-31T20:38:26;100229.28;;;1.41;93.28
42761;BME280;31672;47.638;19.026;2023-01-31T20:43:29;100222.91;;;1.32;95.21
42761;BME280;31672;47.638;19.026;2023-01-31T20:48:32;100221.56;;;1.26;95.68
42761;BME280;31672;47.638;19.026;2023-01-31T20:53:36;100203.31;;;1.25;97.32
42761;BME280;31672;47.638;19.026;2023-01-31T20:58:41;100201.88;;;1.21;97.55
42761;BME280;31672;47.638;19.026;2023-01-31T21:03:44;100190.78;;;1.17;98.83
42761;BME280;31672;47.638;19.026;2023-01-31T21:08:48;100194.56;;;1.13;98.96
42761;BME280;31672;47.638;19.026;2023-01-31T21:13:51;100191.09;;;1.13;99.79
42761;BME280;31672;47.638;19.026;2023-01-31T21:18:54;100189.44;;;1.12;100.00
42761;BME280;31672;47.638;19.026;2023-01-31T21:23:59;100182.22;;;1.15;100.00
42761;BME280;31672;47.638;19.026;2023-01-31T21:29:02;100184.59;;;1.18;100.00
42761;BME280;31672;47.638;19.026;2023-01-31T21:34:05;100186.19;;;1.21;100.00
42761;BME280;31672;47.638;19.026;2023-01-31T21:39:11;100184.16;;;1.24;100.00
42761;BME280;31672;47.638;19.026;2023-01-31T21:44:14;100182.06;;;1.29;100.00
42761;BME280;31672;47.638;19.026;2023-01-31T21:49:17;100184.47;;;1.32;100.00
42761;BME280;31672;47.638;19.026;2023-01-31T21:54:20;100173.78;;;1.36;100.00
42761;BME280;31672;47.638;19.026;2023-01-31T21:59:23;100186.75;;;1.37;100.00
42761;BME280;31672;47.638;19.026;2023-01-31T22:04:26;100175.94;;;1.42;100.00
42761;BME280;31672;47.638;19.026;2023-01-31T22:09:29;100163.50;;;1.45;99.90
42761;BME280;31672;47.638;19.026;2023-01-31T22:14:32;100161.38;;;1.50;99.72
42761;BME280;31672;47.638;19.026;2023-01-31T22:19:35;100154.84;;;1.56;98.85
42761;BME280;31672;47.638;19.026;2023-01-31T22:24:39;100164.16;;;1.60;98.53
42761;BME280;31672;47.638;19.026;2023-01-31T22:29:42;100149.88;;;1.64;97.83
42761;BME280;31672;47.638;19.026;2023-01-31T22:34:45;100149.44;;;1.70;97.67
42761;BME280;31672;47.638;19.026;2023-01-31T22:39:49;100147.66;;;1.71;97.29
42761;BME280;31672;47.638;19.026;2023-01-31T22:44:52;100144.72;;;1.75;97.10
42761;BME280;31672;47.638;19.026;2023-01-31T22:49:55;100143.63;;;1.78;96.76
42761;BME280;31672;47.638;19.026;2023-01-31T22:54:58;100132.81;;;1.82;96.87
42761;BME280;31672;47.638;19.026;2023-01-31T23:00:01;100123.66;;;1.88;96.32
42761;BME280;31672;47.638;19.026;2023-01-31T23:05:08;100116.19;;;1.95;95.80
42761;BME280;31672;47.638;19.026;2023-01-31T23:10:11;100103.31;;;2.03;95.26
42761;BME280;31672;47.638;19.026;2023-01-31T23:15:14;100106.22;;;2.11;94.31
42761;BME280;31672;47.638;19.026;2023-01-31T23:20:18;100100.28;;;2.20;93.21
42761;BME280;31672;47.638;19.026;2023-01-31T23:25:26;100102.41;;;2.26;92.99
42761;BME280;31672;47.638;19.026;2023-01-31T23:30:29;100100.91;;;2.35;91.41
42761;BME280;31672;47.638;19.026;2023-01-31T23:35:33;100103.16;;;2.39;90.40
42761;BME280;31672;47.638;19.026;2023-01-31T23:40:36;100077.31;;;2.46;90.01
42761;BME280;31672;47.638;19.026;2023-01-31T23:45:39;100079.91;;;2.57;88.52
42761;BME280;31672;47.638;19.026;2023-01-31T23:50:42;100071.19;;;2.68;87.36
42761;BME280;31672;47.638;19.026;2023-01-31T23:55:45;100072.50;;;2.74;86.18
